KFBG/FBG METAR and TAF weather

Enter ICAO airport designator
Station Type Date Time Source
KFBG METAR 2022/12/05 13:37 UTC NOAA

KFBG 051337Z AUTO 00000KT 10SM CLR 05/02 A3022 RMK AO2 SLP238 $


Station Type Date Time Source
KFBG Decoded METAR 2022/12/05 13:37 UTC NOAA

Fort Bragg / Simmons Army Airfield, NC, United States (KFBG) 35-08N 078-56W 74M
Dec 05, 2022 - 08:37 AM EST / 2022.12.05 1337 UTC
Wind: Calm:0
Visibility: 10 mile(s):0
Sky conditions: clear
Temperature: 41 F (5 C)
Dew Point: 35 F (2 C)
Relative Humidity: 80%
Pressure (altimeter): 30.22 in. Hg (1023 hPa)
ob: KFBG 051337Z AUTO 00000KT 10SM CLR 05/02 A3022 RMK AO2 SLP238
cycle: 13

Station Type Date Time Source
KFBG TAF 2022/12/05 10:06 UTC NOAA

TAF TAF KFBG 051000Z 0510/0616 05006KT 9999 SCT100 QNH3019INS
BECMG 0517/0518 27006KT 9999 BKN040 QNH3017INS
BECMG 0611/0612 06006KT 8000 -SHRA OVC020 QNH3022INS TX14/0521Z TN00/0511Z

Example: see airport list